createdAt,value
2023-03-13T00:00:31.178Z,98325.34
2023-03-13T00:05:36.084Z,98316.48
2023-03-13T00:10:47.334Z,98313.92
2023-03-13T00:16:11.111Z,98300.32
2023-03-13T00:21:13.583Z,98300.36
2023-03-13T00:26:18.792Z,98300.94
2023-03-13T00:31:22.677Z,98292.54
2023-03-13T00:36:28.195Z,98282.56
2023-03-13T00:41:50.981Z,98274.23
2023-03-13T00:46:54.830Z,98266.25
2023-03-13T00:52:03.077Z,98273.13
2023-03-13T00:57:05.344Z,98261.98
2023-03-13T01:02:07.555Z,98256.55
2023-03-13T01:07:10.190Z,98263.88
2023-03-13T01:12:15.348Z,98278.00
2023-03-13T01:17:17.713Z,98275.88
2023-03-13T01:22:19.852Z,98285.80
2023-03-13T01:27:23.217Z,98291.73
2023-03-13T01:32:28.570Z,98289.65
2023-03-13T01:37:30.850Z,98278.98
2023-03-13T01:42:50.090Z,98279.27
2023-03-13T01:47:53.011Z,98279.85
2023-03-13T01:53:04.344Z,98274.55
2023-03-13T01:58:07.040Z,98268.80
2023-03-13T02:03:14.880Z,98267.59
2023-03-13T02:08:23.695Z,98266.91
2023-03-13T02:13:28.475Z,98271.81
2023-03-13T02:18:30.993Z,98274.81
2023-03-13T02:23:44.903Z,98279.19
2023-03-13T02:28:50.223Z,98290.79
2023-03-13T02:33:58.177Z,98296.70
2023-03-13T02:39:04.632Z,98293.63
2023-03-13T02:44:10.354Z,98299.27
2023-03-13T02:49:28.664Z,98301.81
2023-03-13T02:54:35.947Z,98309.50
2023-03-13T02:59:44.429Z,98317.27
2023-03-13T03:04:47.895Z,98313.39
2023-03-13T03:09:50.215Z,98302.45
2023-03-13T03:14:54.463Z,98308.02
2023-03-13T03:19:57.745Z,98316.66
2023-03-13T03:25:00.447Z,98315.00
2023-03-13T03:30:05.726Z,98315.69
2023-03-13T03:35:12.915Z,98316.10
2023-03-13T03:40:18.596Z,98311.92
2023-03-13T03:45:21.155Z,98307.61
2023-03-13T03:50:24.046Z,98307.64
2023-03-13T03:55:31.184Z,98303.65
2023-03-13T04:00:34.106Z,98296.10
2023-03-13T04:05:42.193Z,98298.48
2023-03-13T04:10:45.513Z,98302.08
2023-03-13T04:15:50.982Z,98299.09
2023-03-13T04:21:03.837Z,98296.84
2023-03-13T04:26:13.173Z,98294.91
2023-03-13T04:31:16.842Z,98293.46
2023-03-13T04:36:36.806Z,98289.11
2023-03-13T04:42:21.893Z,98283.45
2023-03-13T04:48:03.508Z,98283.61
2023-03-13T04:53:18.172Z,98278.40
2023-03-13T04:59:03.836Z,98272.02
2023-03-13T05:04:31.377Z,98274.83
2023-03-13T05:09:52.571Z,98277.88
2023-03-13T05:15:19.630Z,98278.50
2023-03-13T05:20:31.648Z,98278.83
2023-03-13T05:25:43.839Z,98278.08
2023-03-13T05:30:56.519Z,98274.73
2023-03-13T05:36:19.173Z,98274.17
2023-03-13T05:41:40.565Z,98268.55
2023-03-13T05:46:54.048Z,98267.63
2023-03-13T05:52:15.673Z,98262.91
2023-03-13T05:57:43.929Z,98248.09
2023-03-13T06:03:03.684Z,98241.83
2023-03-13T06:08:10.882Z,98241.05
2023-03-13T06:13:19.806Z,98237.40
2023-03-13T06:18:27.549Z,98239.13
2023-03-13T06:23:40.118Z,98242.70
2023-03-13T06:28:42.827Z,98240.84
2023-03-13T06:33:45.248Z,98238.95
2023-03-13T06:38:49.498Z,98238.66
2023-03-13T06:43:51.539Z,98234.84
2023-03-13T06:48:53.665Z,98235.11
2023-03-13T06:53:55.917Z,98231.27
2023-03-13T06:59:02.103Z,98222.95
2023-03-13T07:04:04.397Z,98219.92
2023-03-13T07:09:06.766Z,98222.52
2023-03-13T07:14:16.923Z,98216.65
2023-03-13T07:19:19.374Z,98209.06
2023-03-13T07:24:22.459Z,98202.59
2023-03-13T07:29:25.199Z,98195.16
2023-03-13T07:34:27.924Z,98180.92
2023-03-13T07:39:29.981Z,98179.66
2023-03-13T07:44:33.521Z,98177.92
2023-03-13T07:49:41.196Z,98166.45
2023-03-13T07:54:48.642Z,98158.34
2023-03-13T07:59:51.172Z,98156.21
2023-03-13T08:04:58.774Z,98161.86
2023-03-13T08:10:01.413Z,98169.67
2023-03-13T08:15:04.253Z,98168.77
2023-03-13T08:20:12.582Z,98167.08
2023-03-13T08:25:15.158Z,98159.08
2023-03-13T08:30:21.813Z,98154.38
2023-03-13T08:35:24.078Z,98148.08
2023-03-13T08:40:26.450Z,98144.65
2023-03-13T08:45:29.199Z,98139.94
2023-03-13T08:50:34.214Z,98139.77
2023-03-13T08:55:44.253Z,98129.81
2023-03-13T09:00:46.488Z,98123.40
2023-03-13T09:05:56.040Z,98128.92
2023-03-13T09:11:05.320Z,98128.92
2023-03-13T09:16:10.818Z,98123.42
2023-03-13T09:21:17.513Z,98123.27
2023-03-13T09:26:23.200Z,98113.86
2023-03-13T09:31:33.626Z,98109.17
2023-03-13T09:36:36.929Z,98103.35
2023-03-13T09:41:47.657Z,98103.73
2023-03-13T09:47:05.442Z,98102.19
2023-03-13T09:52:25.599Z,98108.56
2023-03-13T09:57:34.911Z,98100.77
2023-03-13T10:02:56.987Z,98093.40
2023-03-13T10:08:15.604Z,98068.94
2023-03-13T10:13:30.876Z,98058.80
2023-03-13T10:18:33.553Z,98052.06
2023-03-13T10:24:03.910Z,98041.30
2023-03-13T10:29:29.349Z,98036.52
2023-03-13T10:35:00.862Z,98026.96
2023-03-13T10:40:27.755Z,98028.45
2023-03-13T10:45:35.871Z,98023.32
2023-03-13T10:50:43.242Z,98018.52
2023-03-13T10:55:45.471Z,98000.39
2023-03-13T11:00:49.111Z,97985.14
2023-03-13T11:05:59.489Z,97975.73
2023-03-13T11:11:17.078Z,97960.86
2023-03-13T11:16:32.444Z,97946.04
2023-03-13T11:22:23.591Z,97940.84
2023-03-13T11:28:00.592Z,97930.10
2023-03-13T11:33:10.126Z,97924.13
2023-03-13T11:38:36.672Z,97913.25
2023-03-13T11:43:50.058Z,97912.61
2023-03-13T11:49:38.527Z,97910.33
2023-03-13T11:55:24.072Z,97895.67
2023-03-13T12:00:44.925Z,97894.91
2023-03-13T12:05:58.373Z,97891.41
2023-03-13T12:11:13.327Z,97881.81
2023-03-13T12:16:23.792Z,97876.45
2023-03-13T12:21:32.436Z,97864.69
2023-03-13T12:26:44.750Z,97868.61
2023-03-13T12:32:32.118Z,97890.70
2023-03-13T12:38:03.028Z,97898.66
2023-03-13T12:43:17.961Z,97884.33
2023-03-13T12:48:46.263Z,97883.23
2023-03-13T12:54:08.903Z,97887.40
2023-03-13T12:59:19.271Z,97883.90
2023-03-13T13:04:44.026Z,97875.73
2023-03-13T13:10:03.051Z,97884.19
2023-03-13T13:15:12.709Z,97870.17
2023-03-13T13:20:38.972Z,97860.72
2023-03-13T13:25:43.667Z,97861.49
2023-03-13T13:30:51.007Z,97862.11
2023-03-13T13:36:09.349Z,97848.86
2023-03-13T13:41:12.519Z,97831.92
2023-03-13T13:46:33.463Z,97826.84
2023-03-13T13:51:41.520Z,97824.71
2023-03-13T13:57:00.059Z,97828.65
2023-03-13T14:02:50.967Z,97817.26
2023-03-13T14:08:33.092Z,97807.27
2023-03-13T14:13:35.593Z,97806.81
2023-03-13T14:18:41.973Z,97804.96
2023-03-13T14:23:47.374Z,97809.95
2023-03-13T14:28:55.634Z,97809.83
2023-03-13T14:34:18.219Z,97803.52
2023-03-13T14:39:38.416Z,97790.11
2023-03-13T14:44:42.964Z,97787.61
2023-03-13T14:49:47.205Z,97789.16
2023-03-13T14:55:28.963Z,97779.09
2023-03-13T15:00:33.750Z,97786.86
2023-03-13T15:05:36.999Z,97775.00
2023-03-13T15:10:40.938Z,97769.25
2023-03-13T15:15:43.493Z,97763.08
2023-03-13T15:21:14.400Z,97754.90
2023-03-13T15:26:17.357Z,97753.16
2023-03-13T15:31:23.801Z,97756.57
2023-03-13T15:36:28.348Z,97754.60
2023-03-13T15:41:30.914Z,97749.17
2023-03-13T15:46:33.289Z,97756.47
2023-03-13T15:51:35.780Z,97758.60
2023-03-13T15:56:38.886Z,97769.73
2023-03-13T16:01:41.625Z,97767.45
2023-03-13T16:06:44.432Z,97763.33
2023-03-13T16:11:48.516Z,97746.84
2023-03-13T16:16:52.824Z,97735.85
2023-03-13T16:21:55.190Z,97720.89
2023-03-13T16:26:57.799Z,97714.64
2023-03-13T16:32:00.468Z,97717.16
2023-03-13T16:37:02.598Z,97719.49
2023-03-13T16:42:05.850Z,97715.36
2023-03-13T16:47:20.906Z,97713.70
2023-03-13T16:52:23.809Z,97711.54
2023-03-13T16:57:27.293Z,97708.95
2023-03-13T17:02:30.286Z,97704.60
2023-03-13T17:07:32.496Z,97692.20
2023-03-13T17:12:34.786Z,97691.39
2023-03-13T17:17:38.697Z,97686.99
2023-03-13T17:22:42.439Z,97685.48
2023-03-13T17:27:47.629Z,97678.60
2023-03-13T17:32:51.056Z,97684.62
2023-03-13T17:37:53.768Z,97682.36
2023-03-13T17:42:56.738Z,97681.63
2023-03-13T17:47:58.951Z,97674.19
2023-03-13T17:53:01.042Z,97670.79
2023-03-13T17:58:04.488Z,97670.33
2023-03-13T18:03:07.088Z,97655.77
2023-03-13T18:08:11.531Z,97638.34
2023-03-13T18:13:13.633Z,97622.89
2023-03-13T18:18:17.566Z,97611.52
2023-03-13T18:23:19.848Z,97610.92
2023-03-13T18:28:24.713Z,97610.39
2023-03-13T18:33:26.930Z,97613.92
2023-03-13T18:38:32.336Z,97609.58
2023-03-13T18:43:34.746Z,97595.43
2023-03-13T18:48:37.485Z,97596.44
2023-03-13T18:53:40.833Z,97591.91
2023-03-13T18:58:43.554Z,97590.50
2023-03-13T19:03:46.327Z,97593.52
2023-03-13T19:08:51.124Z,97596.70
2023-03-13T19:13:54.009Z,97590.15
2023-03-13T19:18:57.601Z,97589.05
2023-03-13T19:23:59.643Z,97587.25
2023-03-13T19:29:02.576Z,97574.50
2023-03-13T19:34:04.674Z,97573.90
2023-03-13T19:39:20.506Z,97570.98
2023-03-13T19:44:24.633Z,97572.86
2023-03-13T19:49:26.934Z,97565.48
2023-03-13T19:54:28.932Z,97554.94
2023-03-13T19:59:32.041Z,97560.05
2023-03-13T20:04:34.383Z,97546.38
2023-03-13T20:09:36.822Z,97535.86
2023-03-13T20:14:39.401Z,97531.91
2023-03-13T20:19:42.565Z,97532.44
2023-03-13T20:24:44.798Z,97529.63
2023-03-13T20:29:47.057Z,97530.45
2023-03-13T20:34:49.163Z,97526.77
2023-03-13T20:39:51.131Z,97504.73
2023-03-13T20:44:55.433Z,97493.73
2023-03-13T20:49:58.569Z,97493.30
2023-03-13T20:55:00.863Z,97494.61
2023-03-13T21:00:07.692Z,97498.73
2023-03-13T21:05:10.008Z,97496.94
2023-03-13T21:10:18.965Z,97473.17
2023-03-13T21:15:21.927Z,97468.27
2023-03-13T21:20:25.210Z,97476.42
2023-03-13T21:25:27.942Z,97482.17
2023-03-13T21:30:31.151Z,97469.23
2023-03-13T21:35:33.461Z,97461.31
2023-03-13T21:40:35.884Z,97465.21
2023-03-13T21:45:39.235Z,97465.78
2023-03-13T21:50:41.420Z,97458.36
2023-03-13T21:55:43.478Z,97444.79
2023-03-13T22:00:45.853Z,97420.27
2023-03-13T22:05:48.196Z,97405.02
2023-03-13T22:10:55.985Z,97390.60
2023-03-13T22:15:58.116Z,97384.05
2023-03-13T22:21:00.993Z,97374.54
2023-03-13T22:26:04.087Z,97372.55
2023-03-13T22:31:08.298Z,97364.61
2023-03-13T22:36:11.430Z,97353.73
2023-03-13T22:41:17.425Z,97357.48
2023-03-13T22:46:22.726Z,97357.17
2023-03-13T22:51:26.462Z,97367.36
2023-03-13T22:56:48.494Z,97368.45
2023-03-13T23:01:50.610Z,97363.86
2023-03-13T23:06:53.355Z,97357.83
2023-03-13T23:11:55.688Z,97349.16
2023-03-13T23:16:58.323Z,97334.56
2023-03-13T23:22:00.924Z,97323.23
2023-03-13T23:27:03.463Z,97332.90
2023-03-13T23:32:06.675Z,97336.54
2023-03-13T23:37:08.805Z,97326.06
2023-03-13T23:42:10.933Z,97325.55
2023-03-13T23:47:13.966Z,97311.91
2023-03-13T23:52:16.245Z,97298.08
2023-03-13T23:57:19.440Z,97284.36
